Lobdell, Mississippi
Current Conditions -  °F | °C
As of 10:15 AM on Wednesday 28 Jan 2015 (Local Time) from KRNV Reporting Station
Clear Clear  
Wind Chill: 45°   Ceiling: Unl
Heat Index: 49°   Visibility: 10mi
Dew Point: 38°   Wind: 8mph
Humidity: 66%   Direction: 150°SSE
Pressure: 30.3"   Gusts: NA
Location:  33.7809°N, 90.9672°W
Report Text: KRNV 281615Z AUTO 15007KT 10SM CLR 09/03 A3030 RMK AO2 T00920031
Loading
Personal Weather Stations






























Interactive Weather Map New forecast layout! Learn more

10-Day Weather Forecast

Advertisements
Track Severe Weather on mobile